Time;durP1;ratioP1;P1;durP2;ratioP2;P2;SDS_P1;SDS_P2;PMS_P1;PMS_P2;Temp;Humidity;BMP_temperature;BMP_pressure;BME280_temperature;BME280_humidity;BME280_pressure;Samples;Min_cycle;Max_cycle;Signal;HPM_P1;HPM_P2
2023/04/25 00:00:17;;;;;;;6.35;1.30;;;;;;;18.40;45.70;95883.31;5045477;28;20033;-29
2023/04/25 00:02:42;;;;;;;5.50;1.52;;;;;;;18.23;46.29;95874.97;5047211;28;20031;-29
2023/04/25 00:05:08;;;;;;;9.13;2.08;;;;;;;18.25;46.70;95875.25;5045880;28;20039;-29
2023/04/25 00:07:34;;;;;;;5.60;2.10;;;;;;;18.34;46.75;95879.78;5046778;28;20028;-29
2023/04/25 00:10:00;;;;;;;4.18;2.03;;;;;;;18.29;47.18;95871.03;5046249;28;20112;-28
2023/04/25 00:12:28;;;;;;;7.20;2.20;;;;;;;18.24;47.25;95871.75;5043148;28;20103;-29
2023/04/25 00:14:56;;;;;;;5.68;2.08;;;;;;;18.38;47.19;95872.06;5040952;28;20017;-30
2023/04/25 00:17:24;;;;;;;6.22;2.40;;;;;;;18.39;47.07;95868.84;5045712;28;20021;-29
2023/04/25 00:19:50;;;;;;;5.35;2.60;;;;;;;18.29;47.95;95857.31;5043080;28;20045;-33
2023/04/25 00:22:16;;;;;;;6.75;2.33;;;;;;;18.34;47.60;95852.31;5042858;28;20021;-30
2023/04/25 00:24:41;;;;;;;6.63;2.35;;;;;;;18.27;47.88;95854.28;5038131;28;20049;-30
2023/04/25 00:27:07;;;;;;;8.63;2.20;;;;;;;18.21;47.61;95850.75;5047902;28;20029;-29
2023/04/25 00:29:33;;;;;;;7.72;2.95;;;;;;;18.16;47.90;95854.25;5050507;28;20108;-29
2023/04/25 00:31:58;;;;;;;8.80;2.50;;;;;;;18.34;47.71;95853.06;5042818;28;20017;-30
2023/04/25 00:34:24;;;;;;;6.25;2.08;;;;;;;18.20;47.86;95843.00;5036119;28;20021;-30
2023/04/25 00:36:49;;;;;;;7.35;2.50;;;;;;;18.24;48.13;95836.06;5050840;28;20542;-29
2023/04/25 00:39:15;;;;;;;7.32;2.55;;;;;;;18.05;48.46;95845.19;5042847;28;20483;-29
2023/04/25 00:41:40;;;;;;;10.38;3.10;;;;;;;17.99;48.97;95839.66;5042789;28;20408;-29
2023/04/25 00:44:09;;;;;;;9.55;2.90;;;;;;;18.01;49.63;95844.66;5045501;28;20457;-29
2023/04/25 00:46:35;;;;;;;9.05;2.80;;;;;;;18.03;49.49;95840.19;5046909;28;20481;-29
2023/04/25 00:49:01;;;;;;;12.27;3.28;;;;;;;18.16;49.31;95846.00;5044259;28;20025;-29
2023/04/25 00:51:26;;;;;;;6.80;2.33;;;;;;;17.97;49.88;95849.59;5044179;28;20393;-30
2023/04/25 00:53:52;;;;;;;10.95;3.58;;;;;;;17.98;49.86;95845.63;5044273;28;20016;-30
2023/04/25 00:56:18;;;;;;;11.90;3.22;;;;;;;18.10;49.87;95847.94;5035301;28;20040;-31
2023/04/25 00:58:44;;;;;;;7.25;3.03;;;;;;;18.06;49.97;95844.66;5042644;28;20437;-30
2023/04/25 01:01:11;;;;;;;9.75;3.65;;;;;;;17.84;51.01;95847.28;5036285;28;20151;-29
2023/04/25 01:03:40;;;;;;;10.93;3.80;;;;;;;18.11;50.69;95845.97;5045851;28;20032;-29
2023/04/25 01:06:08;;;;;;;10.85;3.80;;;;;;;18.18;50.98;95848.22;5037123;28;20424;-29
2023/04/25 01:08:35;;;;;;;9.30;3.88;;;;;;;18.03;51.54;95850.41;5042037;28;20025;-29
2023/04/25 01:11:00;;;;;;;14.88;5.13;;;;;;;17.98;51.70;95846.38;5034865;28;20028;-29
2023/04/25 01:13:26;;;;;;;13.15;4.13;;;;;;;17.86;52.27;95845.56;5042352;28;20029;-29
2023/04/25 01:15:52;;;;;;;10.90;4.70;;;;;;;18.09;51.78;95849.19;5042226;28;20056;-29
2023/04/25 01:18:18;;;;;;;11.27;4.15;;;;;;;17.95;52.49;95841.84;5042147;28;20469;-30
2023/04/25 01:20:46;;;;;;;9.82;4.28;;;;;;;18.05;52.50;95834.94;5041899;28;20029;-31
2023/04/25 01:23:12;;;;;;;7.57;3.88;;;;;;;17.96;52.85;95840.63;5042278;28;20385;-30
2023/04/25 01:25:39;;;;;;;9.10;3.83;;;;;;;17.80;53.26;95836.53;5044279;28;20031;-29
2023/04/25 01:28:05;;;;;;;8.35;3.92;;;;;;;17.86;52.92;95839.31;5042113;28;20052;-30
2023/04/25 01:30:30;;;;;;;6.68;3.50;;;;;;;18.03;52.58;95840.19;5041890;28;20063;-30
2023/04/25 01:32:57;;;;;;;8.23;3.63;;;;;;;17.98;52.82;95838.16;5044625;28;20024;-29
2023/04/25 01:35:23;;;;;;;7.60;3.80;;;;;;;17.99;52.59;95838.91;5044540;28;20017;-29
2023/04/25 01:37:49;;;;;;;6.05;3.00;;;;;;;17.83;53.19;95835.53;5036054;28;20113;-30
2023/04/25 01:40:15;;;;;;;5.70;3.35;;;;;;;17.87;53.09;95833.34;5047645;28;20056;-31
2023/04/25 01:42:42;;;;;;;6.82;3.30;;;;;;;17.92;53.19;95827.16;5034611;28;20025;-29
2023/04/25 01:45:09;;;;;;;9.18;4.07;;;;;;;17.94;53.15;95821.16;5044270;28;20043;-30
2023/04/25 01:47:35;;;;;;;7.50;3.40;;;;;;;17.82;53.28;95825.06;5038503;28;20117;-29
2023/04/25 01:50:04;;;;;;;6.75;3.78;;;;;;;17.85;53.23;95832.31;5042671;28;20471;-29
2023/04/25 01:52:30;;;;;;;7.32;3.53;;;;;;;17.80;53.00;95820.06;5041410;28;20041;-29
2023/04/25 01:54:57;;;;;;;4.43;2.80;;;;;;;17.75;53.13;95826.28;5041620;28;20087;-30
2023/04/25 01:57:22;;;;;;;4.32;2.88;;;;;;;17.72;52.49;95824.50;5047540;28;20056;-29
2023/04/25 01:59:48;;;;;;;4.93;3.20;;;;;;;17.84;52.13;95823.34;5040699;28;20032;-29
2023/04/25 02:02:14;;;;;;;4.65;2.65;;;;;;;17.95;51.42;95812.44;5042775;28;20025;-29
2023/04/25 02:04:39;;;;;;;4.47;2.78;;;;;;;17.97;51.42;95819.44;5043827;28;20431;-29
2023/04/25 02:07:05;;;;;;;4.72;2.53;;;;;;;17.89;51.33;95822.63;5043407;28;20377;-30
2023/04/25 02:09:30;;;;;;;3.55;2.70;;;;;;;17.82;51.47;95812.09;5044263;28;20029;-29
2023/04/25 02:11:56;;;;;;;5.15;2.90;;;;;;;18.01;50.99;95814.47;5044549;28;20025;-29
2023/04/25 02:14:21;;;;;;;4.43;3.03;;;;;;;17.60;51.50;95812.66;5041410;28;20047;-29
2023/04/25 02:16:46;;;;;;;4.53;2.70;;;;;;;17.88;51.08;95812.16;5043991;28;20024;-30
2023/04/25 02:19:12;;;;;;;4.47;3.10;;;;;;;17.84;51.07;95823.34;5036996;28;20384;-30
2023/04/25 02:21:37;;;;;;;4.07;2.58;;;;;;;17.78;50.81;95819.06;5033783;28;20567;-29
2023/04/25 02:24:03;;;;;;;6.85;2.70;;;;;;;17.75;50.84;95818.03;5046228;28;20492;-30
2023/04/25 02:26:29;;;;;;;3.80;2.50;;;;;;;17.65;51.03;95814.00;5043220;28;20064;-30
2023/04/25 02:28:56;;;;;;;2.70;2.13;;;;;;;17.68;51.03;95810.25;5044333;28;20433;-30
2023/04/25 02:31:21;;;;;;;5.22;2.42;;;;;;;17.57;51.04;95815.63;5037130;28;20362;-30
2023/04/25 02:33:47;;;;;;;3.35;2.03;;;;;;;17.65;50.96;95800.28;5042005;28;20021;-29
2023/04/25 02:36:13;;;;;;;4.95;2.58;;;;;;;17.71;50.83;95803.81;5044186;28;20012;-30
2023/04/25 02:38:38;;;;;;;5.00;2.63;;;;;;;17.85;50.15;95802.91;5035395;28;20393;-29
2023/04/25 02:41:04;;;;;;;4.28;1.92;;;;;;;17.92;49.74;95793.47;5040541;28;20021;-29
2023/04/25 02:43:29;;;;;;;3.72;2.05;;;;;;;17.82;49.65;95789.41;5039540;28;20469;-29
2023/04/25 02:45:55;;;;;;;4.47;2.25;;;;;;;17.70;49.50;95785.84;5034871;28;20450;-31
2023/04/25 02:48:20;;;;;;;4.90;1.77;;;;;;;17.92;49.04;95790.75;5046897;28;20462;-31
2023/04/25 02:50:46;;;;;;;3.63;1.65;;;;;;;17.75;49.57;95789.88;5039930;28;20049;-30
2023/04/25 02:53:11;;;;;;;4.70;2.15;;;;;;;17.83;49.10;95785.44;5040893;28;20036;-30
2023/04/25 02:55:36;;;;;;;6.10;2.30;;;;;;;17.67;49.83;95784.09;5040302;28;20381;-30
2023/04/25 02:58:02;;;;;;;7.15;2.50;;;;;;;17.75;49.52;95787.13;5040472;28;20052;-29
2023/04/25 03:00:28;;;;;;;5.95;2.45;;;;;;;17.82;49.47;95781.94;5039910;28;20028;-29
2023/04/25 03:02:53;;;;;;;5.78;2.45;;;;;;;17.83;49.32;95774.44;5039871;28;20415;-29
2023/04/25 03:05:19;;;;;;;8.35;2.63;;;;;;;17.71;49.55;95781.09;5035417;28;20029;-29
2023/04/25 03:07:45;;;;;;;4.57;2.17;;;;;;;17.82;48.94;95775.69;5044542;28;20041;-30
2023/04/25 03:10:11;;;;;;;4.50;2.05;;;;;;;17.73;49.19;95762.94;5046678;28;20032;-29
2023/04/25 03:12:37;;;;;;;5.53;1.50;;;;;;;17.67;49.29;95772.38;5044223;28;20071;-29
2023/04/25 03:15:03;;;;;;;7.28;2.20;;;;;;;17.80;49.26;95770.69;5043893;28;20021;-29
2023/04/25 03:17:29;;;;;;;6.50;2.65;;;;;;;17.76;50.09;95758.47;5045025;28;20044;-29
2023/04/25 03:19:55;;;;;;;6.40;2.58;;;;;;;17.71;50.48;95753.69;5041761;28;20437;-30
2023/04/25 03:22:21;;;;;;;6.97;3.22;;;;;;;17.65;50.99;95766.63;5047236;28;20032;-30
2023/04/25 03:24:46;;;;;;;3.33;2.55;;;;;;;17.68;51.05;95765.66;5038515;28;20028;-30
2023/04/25 03:27:12;;;;;;;5.55;2.83;;;;;;;17.62;51.08;95773.03;5047514;28;20476;-29
2023/04/25 03:29:38;;;;;;;3.78;2.58;;;;;;;17.52;51.42;95770.50;5038998;28;20465;-29
2023/04/25 03:32:03;;;;;;;5.45;2.72;;;;;;;17.62;50.80;95773.81;5051361;28;20021;-30
2023/04/25 03:34:28;;;;;;;4.18;2.35;;;;;;;17.64;50.71;95768.63;5039930;28;20117;-28
2023/04/25 03:36:54;;;;;;;3.78;2.13;;;;;;;17.44;51.36;95761.19;5043744;28;20017;-29
2023/04/25 03:39:19;;;;;;;4.00;2.50;;;;;;;17.77;50.12;95768.94;5043767;28;20421;-29
2023/04/25 03:41:45;;;;;;;3.40;2.08;;;;;;;17.49;50.93;95767.97;5043728;28;20021;-30
2023/04/25 03:44:10;;;;;;;2.88;2.08;;;;;;;17.41;51.41;95775.16;5047250;28;20028;-29
2023/04/25 03:46:37;;;;;;;4.03;2.20;;;;;;;17.53;51.32;95777.50;5040083;28;20021;-29
2023/04/25 03:49:02;;;;;;;3.42;2.00;;;;;;;17.42;51.27;95774.66;5043982;28;20029;-29
2023/04/25 03:51:28;;;;;;;2.00;1.80;;;;;;;17.39;51.09;95775.63;5043153;28;20519;-31
2023/04/25 03:57:15;;;;;;;2.63;2.03;;;;;;;17.41;52.02;95786.88;5044969;28;20444;-30
2023/04/25 03:59:41;;;;;;;3.50;2.17;;;;;;;17.52;51.83;95789.69;5043570;28;20017;-31
2023/04/25 04:02:06;;;;;;;3.45;2.47;;;;;;;17.47;52.01;95779.41;5043911;28;20019;-29
2023/04/25 04:04:31;;;;;;;4.25;2.70;;;;;;;17.31;52.47;95776.56;5045258;28;20025;-29
2023/04/25 04:06:57;;;;;;;5.88;2.65;;;;;;;17.21;53.22;95773.22;5046642;28;20017;-29
2023/04/25 04:09:22;;;;;;;6.93;3.40;;;;;;;17.37;52.83;95769.13;5043855;28;20469;-29
2023/04/25 04:11:47;;;;;;;7.63;3.10;;;;;;;17.64;52.34;95787.06;5040941;28;20419;-29
2023/04/25 04:14:13;;;;;;;5.63;2.72;;;;;;;17.38;52.86;95778.84;5046315;28;20025;-31
2023/04/25 04:16:38;;;;;;;4.82;2.90;;;;;;;17.39;52.97;95772.91;5043436;28;20025;-30
2023/04/25 04:19:04;;;;;;;5.55;2.70;;;;;;;17.35;53.24;95772.34;5042659;28;20029;-30
2023/04/25 04:21:29;;;;;;;4.35;2.33;;;;;;;17.51;52.57;95769.00;5050349;28;20020;-29
2023/04/25 04:23:55;;;;;;;5.18;2.40;;;;;;;17.40;52.91;95776.38;5043201;28;20017;-29
2023/04/25 04:26:24;;;;;;;4.90;2.45;;;;;;;17.39;52.88;95796.81;5050143;28;20408;-29
2023/04/25 04:28:54;;;;;;;5.80;2.30;;;;;;;17.32;53.12;95792.50;5045899;28;20033;-29
2023/04/25 04:31:23;;;;;;;4.00;2.30;;;;;;;17.49;52.53;95774.22;5044723;28;20033;-29
2023/04/25 04:33:49;;;;;;;2.88;1.77;;;;;;;17.30;52.62;95770.34;5045124;28;20040;-31
2023/04/25 04:36:15;;;;;;;4.45;2.05;;;;;;;17.46;52.16;95780.66;5046125;28;20013;-29
2023/04/25 04:38:42;;;;;;;3.97;1.60;;;;;;;17.24;52.67;95791.44;5044762;28;20021;-31
2023/04/25 04:41:08;;;;;;;3.45;2.00;;;;;;;17.51;52.14;95785.44;5046309;28;20461;-29
2023/04/25 04:43:33;;;;;;;2.67;1.65;;;;;;;17.49;52.00;95792.66;5046603;28;20044;-30
2023/04/25 04:46:00;;;;;;;3.10;1.63;;;;;;;17.46;51.79;95766.94;5044313;28;20052;-29
2023/04/25 04:48:26;;;;;;;2.47;1.50;;;;;;;17.28;51.76;95770.06;5047718;28;20049;-29
2023/04/25 04:50:52;;;;;;;2.90;1.40;;;;;;;17.23;51.70;95770.75;5040611;28;20088;-29
2023/04/25 04:53:17;;;;;;;2.83;1.35;;;;;;;17.53;50.86;95779.47;5042923;28;20017;-29
2023/04/25 04:55:42;;;;;;;3.63;1.50;;;;;;;17.55;50.75;95780.50;5042319;28;20021;-29
2023/04/25 04:58:08;;;;;;;4.25;1.63;;;;;;;17.60;51.05;95781.75;5042691;28;20358;-29
2023/04/25 05:00:34;;;;;;;3.53;1.92;;;;;;;17.53;51.09;95774.00;5046864;28;20049;-29
2023/04/25 05:02:59;;;;;;;5.40;1.55;;;;;;;17.35;51.31;95772.34;5045423;28;20021;-29
2023/04/25 05:05:25;;;;;;;4.32;1.60;;;;;;;17.45;50.79;95776.41;5042350;28;20057;-29
2023/04/25 05:07:50;;;;;;;4.75;1.60;;;;;;;17.68;50.54;95771.13;5041117;28;20441;-31
2023/04/25 05:10:18;;;;;;;7.18;2.05;;;;;;;17.53;50.57;95772.00;5036895;28;20033;-30
2023/04/25 05:12:43;;;;;;;4.10;1.55;;;;;;;17.63;50.60;95769.06;5041835;28;20032;-30
2023/04/25 05:15:09;;;;;;;5.85;1.75;;;;;;;17.35;51.33;95766.88;5034228;28;20373;-29
2023/04/25 05:17:35;;;;;;;9.25;2.00;;;;;;;17.53;51.01;95763.78;5037362;28;20013;-29
2023/04/25 05:20:00;;;;;;;5.53;1.75;;;;;;;17.44;51.42;95763.19;5039935;28;20388;-29
2023/04/25 05:22:26;;;;;;;7.88;1.70;;;;;;;17.46;51.46;95766.19;5042438;28;20080;-29
2023/04/25 05:24:51;;;;;;;6.07;1.50;;;;;;;17.54;51.50;95761.78;5038484;28;20519;-31
2023/04/25 05:27:18;;;;;;;11.50;2.03;;;;;;;17.54;51.68;95764.53;5045758;28;20381;-30
2023/04/25 05:29:44;;;;;;;8.40;2.20;;;;;;;17.74;51.36;95763.69;5048848;28;20029;-29
2023/04/25 05:32:09;;;;;;;9.15;2.10;;;;;;;17.81;51.40;95763.97;5043565;28;20037;-28
2023/04/25 05:34:35;;;;;;;8.30;1.90;;;;;;;17.63;51.83;95775.34;5036395;28;20029;-29
2023/04/25 05:37:00;;;;;;;8.27;2.00;;;;;;;17.64;52.55;95770.59;5034501;28;20018;-29
2023/04/25 05:39:26;;;;;;;15.10;2.35;;;;;;;17.55;52.60;95771.53;5041939;28;20017;-29
2023/04/25 05:41:51;;;;;;;6.35;2.38;;;;;;;17.60;52.51;95768.81;5041273;28;20068;-30
2023/04/25 05:44:17;;;;;;;10.38;2.40;;;;;;;17.44;53.23;95765.94;5041176;28;20013;-32
2023/04/25 05:46:42;;;;;;;7.03;1.92;;;;;;;17.54;53.26;95767.28;5041207;28;20025;-29
2023/04/25 05:49:08;;;;;;;7.35;1.73;;;;;;;17.41;53.54;95767.69;5041968;28;20028;-29
2023/04/25 05:51:33;;;;;;;7.18;2.22;;;;;;;17.67;53.20;95773.13;5041230;28;20042;-29
2023/04/25 05:53:59;;;;;;;8.30;2.47;;;;;;;17.82;53.02;95764.72;5041387;28;20021;-31
2023/04/25 05:56:24;;;;;;;12.95;2.40;;;;;;;17.81;52.73;95771.44;5037882;28;20461;-29
2023/04/25 05:58:50;;;;;;;12.48;2.38;;;;;;;17.81;53.03;95765.97;5043099;28;20455;-29
2023/04/25 06:01:15;;;;;;;8.00;2.03;;;;;;;17.83;53.29;95771.72;5041905;28;20024;-29
2023/04/25 06:03:42;;;;;;;6.18;2.03;;;;;;;17.63;54.06;95780.03;5038502;28;20032;-29
2023/04/25 06:06:08;;;;;;;6.93;2.10;;;;;;;17.76;53.75;95772.19;5041698;28;20021;-29
2023/04/25 06:08:34;;;;;;;4.78;2.05;;;;;;;17.57;54.34;95772.50;5044077;28;20040;-29
2023/04/25 06:11:00;;;;;;;9.13;2.28;;;;;;;17.65;53.93;95775.59;5037690;28;20025;-29
2023/04/25 06:13:25;;;;;;;8.40;2.33;;;;;;;17.62;54.27;95778.53;5041386;28;20018;-30
2023/04/25 06:15:51;;;;;;;4.30;2.22;;;;;;;17.67;54.49;95769.63;5039647;28;20092;-29
2023/04/25 06:18:16;;;;;;;4.57;2.25;;;;;;;17.71;54.35;95762.66;5040847;28;20176;-30
2023/04/25 06:20:42;;;;;;;5.32;2.20;;;;;;;17.78;54.37;95764.97;5043534;28;20468;-29
2023/04/25 06:23:07;;;;;;;7.90;2.58;;;;;;;17.74;54.76;95769.16;5044243;28;20021;-29
2023/04/25 06:25:32;;;;;;;10.43;2.20;;;;;;;17.75;54.82;95765.94;5043132;28;20104;-29
2023/04/25 06:27:58;;;;;;;6.97;2.35;;;;;;;17.74;54.50;95752.72;5044081;28;20024;-30
2023/04/25 06:30:25;;;;;;;6.90;2.22;;;;;;;17.81;54.65;95768.69;5044004;28;20013;-29
2023/04/25 06:32:54;;;;;;;5.38;2.00;;;;;;;17.87;54.42;95775.72;5036324;28;20450;-29
2023/04/25 06:35:20;;;;;;;5.60;2.20;;;;;;;17.90;54.34;95777.50;5045145;28;20047;-29
2023/04/25 06:37:46;;;;;;;9.55;2.17;;;;;;;17.98;54.59;95785.25;5041651;28;20028;-30
2023/04/25 06:40:11;;;;;;;10.05;2.42;;;;;;;18.03;54.00;95779.81;5047003;28;20103;-29
2023/04/25 06:42:37;;;;;;;9.68;2.83;;;;;;;17.93;55.06;95779.25;5032795;28;20381;-28
2023/04/25 06:45:03;;;;;;;5.85;2.30;;;;;;;17.95;54.92;95785.00;5048205;28;20108;-30
2023/04/25 06:47:29;;;;;;;8.73;2.70;;;;;;;17.89;55.03;95781.50;5046270;28;20025;-30
2023/04/25 06:49:55;;;;;;;9.43;2.75;;;;;;;17.79;55.45;95782.94;5035149;28;20491;-31
2023/04/25 06:52:20;;;;;;;9.50;2.83;;;;;;;17.92;54.74;95785.25;5039757;28;20045;-29
2023/04/25 06:54:49;;;;;;;11.18;2.67;;;;;;;18.02;54.65;95783.06;5040733;28;20057;-29
2023/04/25 06:57:15;;;;;;;8.98;3.10;;;;;;;17.98;54.86;95786.00;5043294;28;20496;-29
2023/04/25 06:59:40;;;;;;;9.77;2.70;;;;;;;17.92;54.64;95796.97;5043814;28;20025;-30
2023/04/25 07:02:06;;;;;;;15.52;5.40;;;;;;;17.93;54.74;95786.72;5035578;28;20374;-29
2023/04/25 07:04:31;;;;;;;15.18;4.10;;;;;;;17.87;54.62;95785.97;5043314;28;20025;-29
2023/04/25 07:06:57;;;;;;;12.25;4.47;;;;;;;18.04;53.83;95780.56;5043951;28;20084;-30
2023/04/25 07:09:22;;;;;;;9.38;2.63;;;;;;;17.92;54.12;95786.00;5041773;28;20588;-29
2023/04/25 07:11:48;;;;;;;8.15;2.45;;;;;;;17.99;54.07;95797.75;5046032;28;20020;-29
2023/04/25 07:14:13;;;;;;;7.57;2.17;;;;;;;18.04;53.77;95800.53;5040824;28;20021;-31
2023/04/25 07:16:39;;;;;;;9.80;2.75;;;;;;;18.09;53.42;95793.56;5035730;28;20056;-29
2023/04/25 07:19:04;;;;;;;10.02;2.00;;;;;;;18.12;52.94;95790.59;5036809;28;20032;-30
2023/04/25 07:21:30;;;;;;;8.20;1.83;;;;;;;18.04;52.86;95789.56;5047507;28;20117;-31
2023/04/25 07:23:56;;;;;;;11.57;2.03;;;;;;;17.99;53.27;95800.50;5044504;28;20049;-29
2023/04/25 07:26:21;;;;;;;11.57;2.85;;;;;;;18.09;53.12;95793.56;5042674;28;20052;-28
2023/04/25 07:28:50;;;;;;;12.50;2.55;;;;;;;17.97;53.57;95792.00;5033480;28;20112;-29
2023/04/25 07:31:17;;;;;;;10.75;2.33;;;;;;;17.98;53.50;95791.50;5040444;28;20048;-29
2023/04/25 07:33:43;;;;;;;12.98;2.63;;;;;;;17.86;54.07;95792.69;5047895;28;20029;-31
2023/04/25 07:36:09;;;;;;;10.02;2.30;;;;;;;17.78;54.58;95794.38;5040203;28;20032;-29
2023/04/25 07:38:34;;;;;;;9.45;2.10;;;;;;;18.26;53.44;95788.91;5032651;28;20104;-28
2023/04/25 07:41:00;;;;;;;8.35;2.15;;;;;;;18.01;54.29;95792.53;5040821;28;20071;-29
2023/04/25 07:43:25;;;;;;;9.48;2.38;;;;;;;18.19;54.07;95795.59;5038265;28;20009;-28
2023/04/25 07:45:51;;;;;;;10.30;2.65;;;;;;;18.26;53.72;95795.16;5041953;28;20469;-28
2023/04/25 07:48:20;;;;;;;12.90;2.63;;;;;;;18.15;54.15;95797.09;5036353;28;20025;-29
2023/04/25 07:50:45;;;;;;;11.10;2.78;;;;;;;18.33;53.52;95790.41;5042757;28;20048;-28
2023/04/25 07:53:11;;;;;;;10.00;2.33;;;;;;;18.22;53.90;95789.13;5039035;28;20034;-28
2023/04/25 07:55:39;;;;;;;8.20;1.95;;;;;;;18.31;53.21;95790.91;5039974;28;20030;-29
2023/04/25 07:58:05;;;;;;;9.82;2.22;;;;;;;18.39;53.75;95793.97;5044726;28;20035;-28
2023/04/25 08:00:31;;;;;;;12.63;2.65;;;;;;;18.23;54.43;95790.63;5042454;28;20022;-28
2023/04/25 08:02:56;;;;;;;14.07;2.38;;;;;;;18.54;53.50;95794.53;5043609;28;20091;-29
2023/04/25 08:05:22;;;;;;;11.65;2.58;;;;;;;18.45;53.57;95789.97;5045217;28;20017;-29
2023/04/25 08:07:47;;;;;;;8.85;2.30;;;;;;;18.63;53.01;95795.06;5041079;28;20021;-29
2023/04/25 08:10:13;;;;;;;8.15;1.88;;;;;;;18.61;52.88;95794.06;5043404;28;20029;-28
2023/04/25 08:12:38;;;;;;;10.88;2.00;;;;;;;18.50;53.06;95794.75;5043560;28;20017;-28
2023/04/25 08:15:05;;;;;;;11.15;2.08;;;;;;;18.56;52.85;95792.75;5042794;28;20019;-29
2023/04/25 08:17:30;;;;;;;10.05;2.70;;;;;;;18.47;52.99;95786.75;5044950;28;20369;-28
2023/04/25 08:19:56;;;;;;;12.18;2.17;;;;;;;18.55;52.90;95785.75;5046502;28;20021;-28
2023/04/25 08:22:22;;;;;;;13.85;2.88;;;;;;;18.62;52.53;95787.31;5044739;28;20044;-29
2023/04/25 08:24:47;;;;;;;9.25;2.08;;;;;;;18.63;52.35;95781.34;5046452;28;20016;-28
2023/04/25 08:27:13;;;;;;;10.82;2.20;;;;;;;18.58;52.40;95787.56;5040418;28;20025;-28
2023/04/25 08:29:38;;;;;;;11.40;2.78;;;;;;;18.57;52.13;95793.50;5050039;28;20021;-30
2023/04/25 08:32:04;;;;;;;11.95;2.42;;;;;;;18.75;51.96;95797.84;5039851;28;20029;-30
2023/04/25 08:34:29;;;;;;;9.70;2.28;;;;;;;18.90;51.66;95781.91;5038399;28;20029;-29
2023/04/25 08:36:55;;;;;;;11.88;3.67;;;;;;;18.71;52.07;95783.59;5045568;28;20029;-28
2023/04/25 08:39:20;;;;;;;7.18;2.50;;;;;;;18.81;51.49;95780.13;5040480;28;20036;-28
2023/04/25 08:41:52;;;;;;;10.82;2.55;;;;;;;18.85;51.59;95779.91;5034432;28;20018;-28
2023/04/25 08:44:20;;;;;;;10.88;2.92;;;;;;;18.64;51.87;95769.13;5047342;28;20465;-28
2023/04/25 08:46:49;;;;;;;7.88;2.35;;;;;;;18.87;51.34;95778.16;5045228;28;20485;-28
2023/04/25 08:49:16;;;;;;;7.30;2.65;;;;;;;18.91;51.20;95780.66;5042666;28;20021;-29
2023/04/25 08:51:47;;;;;;;8.65;2.25;;;;;;;18.89;51.01;95775.66;5041955;28;20048;-28
2023/04/25 08:54:14;;;;;;;11.55;3.00;;;;;;;18.86;50.98;95770.41;5038565;28;20462;-28
2023/04/25 08:56:44;;;;;;;6.80;2.20;;;;;;;18.89;50.73;95778.41;5045310;28;20025;-28
2023/04/25 08:59:11;;;;;;;13.02;2.35;;;;;;;18.95;50.51;95784.66;5043522;28;20040;-30
2023/04/25 09:01:36;;;;;;;10.20;2.67;;;;;;;19.18;49.99;95784.69;5039752;28;20028;-28
2023/04/25 09:04:02;;;;;;;7.43;2.35;;;;;;;19.04;50.67;95791.91;5037602;28;20476;-30
2023/04/25 09:06:30;;;;;;;12.43;2.13;;;;;;;19.13;50.11;95785.44;5050116;28;20075;-29
2023/04/25 09:09:03;;;;;;;7.85;2.40;;;;;;;19.08;50.14;95786.16;5042074;28;20040;-28
2023/04/25 09:11:28;;;;;;;5.80;2.00;;;;;;;19.22;49.89;95794.19;5042926;28;20025;-28
2023/04/25 09:14:11;;;;;;;7.30;2.28;;;;;;;18.96;50.42;95796.41;5042189;28;20520;-28
2023/04/25 09:16:56;;;;;;;11.45;2.95;;;;;;;19.23;49.62;95797.69;5049910;28;20477;-28
2023/04/25 09:19:30;;;;;;;9.00;2.22;;;;;;;19.29;49.43;95793.69;5042410;28;20536;-29
2023/04/25 09:21:57;;;;;;;11.52;2.83;;;;;;;19.19;49.72;95806.19;5039025;28;20104;-30
2023/04/25 09:24:33;;;;;;;7.22;1.90;;;;;;;19.04;49.91;95804.91;5037407;28;20145;-28
2023/04/25 09:26:58;;;;;;;9.95;2.40;;;;;;;19.36;48.89;95793.19;5038656;28;20512;-29
2023/04/25 09:29:42;;;;;;;10.10;1.88;;;;;;;19.25;48.88;95800.69;5037492;28;20056;-29
2023/04/25 09:32:13;;;;;;;5.38;1.73;;;;;;;19.14;48.64;95811.69;5041839;28;20075;-28
2023/04/25 09:34:41;;;;;;;8.25;2.22;;;;;;;19.14;48.69;95817.94;5035398;28;20481;-30
2023/04/25 09:37:10;;;;;;;9.73;1.95;;;;;;;19.15;48.77;95811.19;5041174;28;20106;-29
2023/04/25 09:39:36;;;;;;;8.45;2.03;;;;;;;19.13;48.65;95807.44;5048623;28;20032;-28
2023/04/25 09:42:03;;;;;;;7.47;1.65;;;;;;;19.02;48.57;95797.16;5051444;28;20022;-29
2023/04/25 09:44:28;;;;;;;9.90;2.20;;;;;;;19.37;47.63;95810.44;5038825;28;20029;-29
2023/04/25 09:46:54;;;;;;;7.50;1.85;;;;;;;19.19;47.85;95797.19;5042068;28;20025;-29
2023/04/25 09:49:20;;;;;;;5.72;1.75;;;;;;;19.21;47.69;95794.69;5041632;28;20021;-28
2023/04/25 09:51:58;;;;;;;8.85;1.90;;;;;;;19.12;47.66;95794.94;5041210;28;20053;-28
2023/04/25 09:54:27;;;;;;;11.45;2.00;;;;;;;19.30;47.11;95802.69;5045324;28;20031;-29
2023/04/25 09:56:53;;;;;;;8.15;1.75;;;;;;;19.31;47.25;95795.94;5046840;28;20388;-29
2023/04/25 09:59:22;;;;;;;8.32;2.33;;;;;;;19.13;47.91;95793.69;5035341;28;20032;-29
2023/04/25 10:01:49;;;;;;;14.27;2.53;;;;;;;19.23;48.12;95792.94;5039895;28;20028;-29
2023/04/25 10:04:20;;;;;;;10.77;2.72;;;;;;;19.40;47.90;95789.47;5041830;28;20021;-29
2023/04/25 10:06:49;;;;;;;11.57;2.17;;;;;;;19.17;48.28;95789.41;5039257;28;20024;-29
2023/04/25 10:09:15;;;;;;;6.85;2.45;;;;;;;19.12;48.08;95792.94;5040909;28;20137;-29
2023/04/25 10:11:41;;;;;;;9.27;2.45;;;;;;;19.16;48.21;95784.44;5040944;28;20466;-29
2023/04/25 10:14:07;;;;;;;9.77;2.13;;;;;;;19.35;47.62;95788.19;5041109;28;20020;-29
2023/04/25 10:16:33;;;;;;;6.65;2.40;;;;;;;19.05;48.31;95781.66;5035931;28;20087;-28
2023/04/25 10:18:58;;;;;;;8.25;2.40;;;;;;;19.25;47.62;95778.69;5043706;28;20033;-29
2023/04/25 10:21:26;;;;;;;9.07;2.55;;;;;;;19.23;47.53;95770.19;5035539;28;20133;-28
2023/04/25 10:23:52;;;;;;;8.80;2.33;;;;;;;19.14;47.81;95781.44;5040305;28;20025;-29
2023/04/25 10:26:19;;;;;;;10.18;2.17;;;;;;;19.23;47.82;95775.69;5047901;28;20017;-30
2023/04/25 10:29:04;;;;;;;8.35;2.13;;;;;;;19.11;48.93;95774.94;5040942;28;20428;-29
2023/04/25 10:31:30;;;;;;;8.13;2.05;;;;;;;19.13;48.81;95772.44;5039068;28;20029;-31
2023/04/25 10:33:56;;;;;;;10.32;2.92;;;;;;;19.02;49.25;95762.19;5043540;28;20021;-29
2023/04/25 10:36:23;;;;;;;7.97;2.17;;;;;;;19.08;48.88;95747.69;5037791;28;20024;-29
2023/04/25 10:38:50;;;;;;;7.85;2.10;;;;;;;19.24;48.49;95741.47;5040158;28;20033;-29
2023/04/25 10:41:18;;;;;;;11.93;2.42;;;;;;;19.26;48.44;95750.72;5040649;28;20104;-28
2023/04/25 10:43:45;;;;;;;5.85;2.72;;;;;;;19.18;47.99;95746.19;5040510;28;20028;-29
2023/04/25 10:46:14;;;;;;;9.80;2.60;;;;;;;19.12;48.34;95737.97;5036920;28;20021;-29
2023/04/25 10:48:46;;;;;;;4.72;1.90;;;;;;;19.23;47.93;95739.97;5043925;28;20055;-29
2023/04/25 10:51:20;;;;;;;8.50;2.03;;;;;;;19.15;48.03;95749.97;5040623;28;20080;-30
2023/04/25 10:53:55;;;;;;;8.13;1.90;;;;;;;19.31;48.45;95749.94;5040009;28;20033;-29
2023/04/25 10:56:40;;;;;;;7.43;1.75;;;;;;;19.25;49.22;95759.47;5044466;28;20045;-30
2023/04/25 10:59:10;;;;;;;11.13;1.70;;;;;;;19.15;50.46;95769.19;5035674;28;20024;-28
2023/04/25 11:01:47;;;;;;;10.25;2.60;;;;;;;19.18;51.04;95752.44;5044376;28;20020;-29
2023/04/25 11:04:23;;;;;;;9.32;1.98;;;;;;;19.08;52.50;95753.19;5041582;28;20488;-28
2023/04/25 11:07:02;;;;;;;8.98;1.85;;;;;;;19.01;53.38;95757.94;5038992;28;20033;-28
2023/04/25 11:09:28;;;;;;;8.20;1.60;;;;;;;19.10;52.76;95745.19;5036049;28;20025;-29
2023/04/25 11:11:58;;;;;;;4.55;1.60;;;;;;;19.10;52.52;95745.19;5045110;28;20523;-29
2023/04/25 11:14:24;;;;;;;7.43;1.63;;;;;;;19.18;53.10;95743.44;5040755;28;20026;-29
2023/04/25 11:16:56;;;;;;;4.97;1.23;;;;;;;19.24;51.56;95722.22;5046004;28;20480;-28
2023/04/25 11:19:22;;;;;;;8.00;2.13;;;;;;;19.25;51.90;95718.22;5040119;28;20079;-31
2023/04/25 11:21:48;;;;;;;3.75;1.08;;;;;;;19.34;51.59;95709.72;5039368;28;20545;-29
2023/04/25 11:24:13;;;;;;;6.15;1.20;;;;;;;19.11;51.99;95699.97;5046796;28;20021;-29
2023/04/25 11:26:42;;;;;;;6.75;1.40;;;;;;;19.24;52.21;95713.97;5035232;28;20033;-29
2023/04/25 11:29:08;;;;;;;6.00;1.70;;;;;;;19.23;51.98;95715.22;5040096;28;20398;-29
2023/04/25 11:31:33;;;;;;;11.52;2.40;;;;;;;19.17;51.95;95715.22;5051223;28;20057;-29